createdAt,value
2022-09-18T00:00:25.283Z,101236.00
2022-09-18T00:05:29.157Z,101226.47
2022-09-18T00:10:31.712Z,101218.91
2022-09-18T00:15:34.304Z,101229.09
2022-09-18T00:20:38.597Z,101225.47
2022-09-18T00:25:42.023Z,101217.63
2022-09-18T00:30:44.559Z,101213.28
2022-09-18T00:35:48.954Z,101210.41
2022-09-18T00:40:51.597Z,101225.69
2022-09-18T00:45:57.671Z,101225.06
2022-09-18T00:51:01.883Z,101229.72
2022-09-18T00:56:05.908Z,101224.63
2022-09-18T01:01:09.454Z,101228.69
2022-09-18T01:06:17.317Z,101239.09
2022-09-18T01:11:32.604Z,101239.63
2022-09-18T01:16:42.096Z,101236.56
2022-09-18T01:21:56.277Z,101236.56
2022-09-18T01:27:01.248Z,101239.31
2022-09-18T01:32:10.593Z,101232.72
2022-09-18T01:37:21.252Z,101225.06
2022-09-18T01:42:27.912Z,101234.09
2022-09-18T01:47:39.129Z,101225.06
2022-09-18T01:52:46.701Z,101210.41
2022-09-18T01:57:54.257Z,101233.34
2022-09-18T02:03:02.124Z,101223.81
2022-09-18T02:08:17.024Z,101208.28
2022-09-18T02:13:27.602Z,101188.63
2022-09-18T02:18:36.012Z,101187.03
2022-09-18T02:23:43.128Z,101197.00
2022-09-18T02:28:47.735Z,101214.34
2022-09-18T02:33:53.335Z,101204.03
2022-09-18T02:39:05.862Z,101198.28
2022-09-18T02:44:11.573Z,101160.16
2022-09-18T02:49:30.310Z,101192.13
2022-09-18T02:54:40.788Z,101200.63
2022-09-18T02:59:48.964Z,101189.81
2022-09-18T03:04:54.794Z,101201.91
2022-09-18T03:10:12.661Z,101193.19
2022-09-18T03:15:15.909Z,101200.09
2022-09-18T03:20:20.051Z,101194.91
2022-09-18T03:25:24.149Z,101189.81
2022-09-18T03:30:27.045Z,101202.31
2022-09-18T03:35:32.148Z,101186.09
2022-09-18T03:40:35.108Z,101155.03
2022-09-18T03:45:41.164Z,101186.81
2022-09-18T03:50:45.564Z,101191.81
2022-09-18T03:55:50.174Z,101144.53
2022-09-18T04:01:11.839Z,101192.66
2022-09-18T04:06:35.830Z,101189.56
2022-09-18T04:11:48.299Z,101187.69
2022-09-18T04:16:51.446Z,101184.16
2022-09-18T04:21:55.338Z,101185.22
2022-09-18T04:26:58.107Z,101186.28
2022-09-18T04:32:02.804Z,101182.03
2022-09-18T04:37:10.121Z,101185.53
2022-09-18T04:42:14.040Z,101182.47
2022-09-18T04:47:16.723Z,101178.53
2022-09-18T04:52:20.831Z,101158.47
2022-09-18T04:57:23.589Z,101156.97
2022-09-18T05:02:26.362Z,101161.13
2022-09-18T05:07:31.700Z,101178.63
2022-09-18T05:12:34.503Z,101188.31
2022-09-18T05:17:39.790Z,101181.50
2022-09-18T05:22:47.198Z,101159.19
2022-09-18T05:27:56.459Z,101179.69
2022-09-18T05:33:02.982Z,101169.91
2022-09-18T05:38:08.607Z,101171.31
2022-09-18T05:43:12.428Z,101170.97
2022-09-18T05:48:15.189Z,101142.38
2022-09-18T05:53:21.102Z,101168.13
2022-09-18T05:58:35.777Z,101164.47
2022-09-18T06:03:38.760Z,101161.72
2022-09-18T06:08:42.877Z,101170.56
2022-09-18T06:13:48.875Z,101182.47
2022-09-18T06:18:51.480Z,101175.56
2022-09-18T06:23:55.612Z,101170.56
2022-09-18T06:29:12.596Z,101178.53
2022-09-18T06:34:23.767Z,101169.94
2022-09-18T06:39:29.130Z,101177.91
2022-09-18T06:44:34.664Z,101183.00
2022-09-18T06:49:40.976Z,101172.03
2022-09-18T06:54:44.899Z,101178.53
2022-09-18T06:59:58.539Z,101173.94
2022-09-18T07:05:02.684Z,101173.00
2022-09-18T07:10:09.280Z,101174.16
2022-09-18T07:15:17.347Z,101158.53
2022-09-18T07:20:20.395Z,101149.47
2022-09-18T07:25:25.171Z,101166.66
2022-09-18T07:30:28.032Z,101162.44
2022-09-18T07:35:30.932Z,101162.50
2022-09-18T07:40:35.919Z,101154.28
2022-09-18T07:45:45.087Z,101150.56
2022-09-18T07:50:47.833Z,101143.44
2022-09-18T07:55:53.927Z,101139.94
2022-09-18T08:01:02.028Z,101156.91
2022-09-18T08:17:20.789Z,101169.38
2022-09-18T08:22:40.314Z,101157.81
2022-09-18T08:27:43.740Z,101152.09
2022-09-18T08:32:48.456Z,101149.19
2022-09-18T08:37:51.153Z,101150.94
2022-09-18T08:43:21.941Z,101128.34
2022-09-18T08:48:32.141Z,101162.16
2022-09-18T08:53:39.487Z,101161.25
2022-09-18T08:59:17.050Z,101147.34
2022-09-18T09:04:28.338Z,101151.00
2022-09-18T09:09:43.282Z,101148.22
2022-09-18T09:15:05.484Z,101148.69
2022-09-18T09:20:22.509Z,101146.28
2022-09-18T09:25:38.964Z,101139.16
2022-09-18T09:30:54.516Z,101137.94
2022-09-18T09:36:20.002Z,101121.28
2022-09-18T09:41:32.307Z,101114.97
2022-09-18T09:46:52.207Z,101123.16
2022-09-18T09:52:09.289Z,101110.31
2022-09-18T09:57:23.007Z,101105.25
2022-09-18T10:02:37.266Z,101110.94
2022-09-18T10:07:49.215Z,101111.09
2022-09-18T10:12:54.180Z,101101.63
2022-09-18T10:18:02.773Z,101111.53
2022-09-18T10:23:14.399Z,101108.00
2022-09-18T10:28:17.911Z,101110.53
2022-09-18T10:33:33.952Z,101118.53
2022-09-18T10:38:40.332Z,101113.66
2022-09-18T10:44:02.260Z,101113.94
2022-09-18T10:49:19.807Z,101110.66
2022-09-18T10:54:24.776Z,101115.53
2022-09-18T10:59:37.304Z,101116.34
2022-09-18T11:04:40.131Z,101105.84
2022-09-18T11:09:46.486Z,101115.19
2022-09-18T11:14:52.618Z,101110.31
2022-09-18T11:20:00.312Z,101111.44
2022-09-18T11:25:27.163Z,101115.50
2022-09-18T11:30:41.399Z,101111.16
2022-09-18T11:35:56.026Z,101118.91
2022-09-18T11:41:01.505Z,101108.25
2022-09-18T11:46:18.768Z,101118.03
2022-09-18T11:51:27.337Z,101114.78
2022-09-18T11:56:40.882Z,101116.69
2022-09-18T12:01:50.914Z,101112.34
2022-09-18T12:07:01.623Z,101106.88
2022-09-18T12:12:12.902Z,101103.13
2022-09-18T12:17:21.365Z,101104.69
2022-09-18T12:22:30.646Z,101104.47
2022-09-18T12:27:41.591Z,101113.44
2022-09-18T12:33:01.815Z,101110.25
2022-09-18T12:38:16.340Z,101105.56
2022-09-18T12:43:50.645Z,101108.84
2022-09-18T12:49:18.137Z,101111.34
2022-09-18T12:54:35.598Z,101109.44
2022-09-18T12:59:52.347Z,101120.53
2022-09-18T13:05:01.762Z,101112.81
2022-09-18T13:10:11.225Z,101119.69
2022-09-18T13:15:19.785Z,101119.44
2022-09-18T13:20:27.994Z,101108.81
2022-09-18T13:25:34.545Z,101108.91
2022-09-18T13:30:40.893Z,101100.28
2022-09-18T13:35:55.428Z,101077.25
2022-09-18T13:41:01.517Z,101090.56
2022-09-18T13:46:07.405Z,101090.22
2022-09-18T13:51:18.367Z,101091.66
2022-09-18T13:56:20.923Z,101084.88
2022-09-18T14:01:59.162Z,101085.72
2022-09-18T14:07:03.686Z,101076.75
2022-09-18T14:12:12.866Z,101081.25
2022-09-18T14:17:18.295Z,101069.69
2022-09-18T14:22:26.423Z,101070.66
2022-09-18T14:27:38.645Z,101052.28
2022-09-18T14:32:45.431Z,101085.34
2022-09-18T14:37:49.606Z,101099.50
2022-09-18T14:42:52.609Z,101105.66
2022-09-18T14:47:56.144Z,101123.00
2022-09-18T14:53:01.762Z,101122.66
2022-09-18T14:58:08.348Z,101122.31
2022-09-18T15:03:20.167Z,101108.72
2022-09-18T15:08:27.063Z,101116.00
2022-09-18T15:13:31.944Z,101106.22
2022-09-18T15:18:41.866Z,101108.97
2022-09-18T15:23:46.247Z,101116.13
2022-09-18T15:28:52.618Z,101116.00
2022-09-18T15:33:58.175Z,101119.38
2022-09-18T15:39:03.160Z,101130.66
2022-09-18T15:44:06.451Z,101122.63
2022-09-18T15:49:28.288Z,101120.25
2022-09-18T15:54:32.579Z,101124.19
2022-09-18T15:59:37.954Z,101123.16
2022-09-18T16:04:41.045Z,101120.72
2022-09-18T16:09:46.806Z,101126.25
2022-09-18T16:15:01.851Z,101133.16
2022-09-18T16:20:39.648Z,101123.16
2022-09-18T16:25:48.143Z,101127.09
2022-09-18T16:30:52.636Z,101110.97
2022-09-18T16:35:57.178Z,101132.00
2022-09-18T16:41:01.795Z,101132.41
2022-09-18T16:46:06.136Z,101158.13
2022-09-18T16:51:08.768Z,101165.25
2022-09-18T16:56:16.089Z,101178.91
2022-09-18T17:01:23.415Z,101183.31
2022-09-18T17:06:26.691Z,101179.88
2022-09-18T17:11:32.508Z,101164.38
2022-09-18T17:16:44.601Z,101137.81
2022-09-18T17:21:48.002Z,101142.41
2022-09-18T17:26:55.780Z,101118.44
2022-09-18T17:31:59.869Z,101134.47
2022-09-18T17:37:04.326Z,101148.03
2022-09-18T17:42:11.635Z,101128.50
2022-09-18T17:47:15.176Z,101145.72
2022-09-18T17:52:18.411Z,101143.38
2022-09-18T17:57:23.974Z,101144.97
2022-09-18T18:02:27.000Z,101132.66
2022-09-18T18:07:29.694Z,101131.06
2022-09-18T18:12:33.571Z,101135.31
2022-09-18T18:17:36.290Z,101144.31
2022-09-18T18:22:39.147Z,101149.63
2022-09-18T18:27:44.993Z,101167.75
2022-09-18T18:32:47.540Z,101165.31
2022-09-18T18:37:50.196Z,101171.22
2022-09-18T18:42:54.326Z,101143.03
2022-09-18T18:47:57.166Z,101175.34
2022-09-18T18:53:00.954Z,101174.47
2022-09-18T18:58:07.722Z,101193.34
2022-09-18T19:03:10.668Z,101197.66
2022-09-18T19:08:13.708Z,101200.75
2022-09-18T19:13:17.773Z,101201.22
2022-09-18T19:18:23.363Z,101201.44
2022-09-18T19:23:26.226Z,101211.16
2022-09-18T19:28:32.884Z,101203.66
2022-09-18T19:33:37.776Z,101214.63
2022-09-18T19:38:40.342Z,101228.19
2022-09-18T19:43:44.426Z,101226.91
2022-09-18T19:48:47.099Z,101221.03
2022-09-18T19:53:49.743Z,101225.69
2022-09-18T19:58:53.782Z,101228.31
2022-09-18T20:03:58.615Z,101234.00
2022-09-18T20:09:01.958Z,101244.16
2022-09-18T20:14:06.014Z,101247.41
2022-09-18T20:19:08.597Z,101250.44
2022-09-18T20:24:11.401Z,101257.13
2022-09-18T20:29:16.334Z,101260.06
2022-09-18T20:34:22.243Z,101268.50
2022-09-18T20:39:25.279Z,101275.97
2022-09-18T20:44:29.643Z,101266.25
2022-09-18T20:49:33.718Z,101265.56
2022-09-18T20:54:37.243Z,101270.59
2022-09-18T20:59:41.484Z,101283.19
2022-09-18T21:04:47.186Z,101279.31
2022-09-18T21:09:49.969Z,101285.44
2022-09-18T21:14:53.856Z,101295.22
2022-09-18T21:19:56.625Z,101296.25
2022-09-18T21:24:59.399Z,101301.28
2022-09-18T21:30:03.507Z,101299.19
2022-09-18T21:35:07.072Z,101297.69
2022-09-18T21:40:09.990Z,101296.34
2022-09-18T21:45:19.452Z,101285.19
2022-09-18T21:50:22.687Z,101303.34
2022-09-18T21:55:25.306Z,101298.72
2022-09-18T22:00:29.300Z,101304.63
2022-09-18T22:05:35.814Z,101311.91
2022-09-18T22:10:38.664Z,101311.41
2022-09-18T22:15:42.628Z,101311.97
2022-09-18T22:20:45.200Z,101298.72
2022-09-18T22:25:47.780Z,101326.09
2022-09-18T22:30:51.648Z,101324.28
2022-09-18T22:35:54.199Z,101308.47
2022-09-18T22:40:56.902Z,101328.53
2022-09-18T22:46:06.304Z,101332.97
2022-09-18T22:51:11.452Z,101342.16
2022-09-18T22:56:15.124Z,101315.78
2022-09-18T23:01:22.524Z,101352.00
2022-09-18T23:06:27.215Z,101352.09
2022-09-18T23:11:32.079Z,101350.94
2022-09-18T23:16:37.763Z,101361.84
2022-09-18T23:21:40.771Z,101356.84
2022-09-18T23:26:45.760Z,101370.22
2022-09-18T23:31:52.821Z,101365.19
2022-09-18T23:36:58.015Z,101367.56
2022-09-18T23:42:02.660Z,101373.34
2022-09-18T23:47:06.844Z,101367.00
2022-09-18T23:52:09.391Z,101360.34
2022-09-18T23:57:11.898Z,101369.44
